Terminal Aerodrome Forecast
Issued by NWS

Home | Current Version | Previous Version | Text Only | Print | Product List | Glossary On
Versions: 1 2 3 4 5 6 7 8 9 10 11 12 13 14 15 16 17 18 19 20
000
FTUS46 KEKA 231728
TAFCEC
TAF
KCEC 231728Z 2318/2418 32011KT P6SM SKC
     FM232200 34014G22KT P6SM SCT030
     FM240600 32008KT 6SM BR OVC015
     FM241200 35004KT 3SM BR OVC007=

USA.gov is the U.S. government's official web portal to all federal, state and local government web resources and services.